createdAt,value
2023-01-04T00:01:48.661Z,6.67
2023-01-04T00:06:49.898Z,6.73
2023-01-04T00:11:51.084Z,6.77
2023-01-04T00:16:52.287Z,6.85
2023-01-04T00:21:53.428Z,6.91
2023-01-04T00:26:54.621Z,6.96
2023-01-04T00:31:55.841Z,6.99
2023-01-04T00:36:57.132Z,7.05
2023-01-04T00:42:05.031Z,7.12
2023-01-04T00:47:06.221Z,7.15
2023-01-04T00:52:07.977Z,7.19
2023-01-04T00:57:09.219Z,7.21
2023-01-04T01:02:10.485Z,7.23
2023-01-04T01:07:11.857Z,7.19
2023-01-04T01:12:13.067Z,7.11
2023-01-04T01:17:14.326Z,7.05
2023-01-04T01:22:15.596Z,7.00
2023-01-04T01:27:16.779Z,6.94
2023-01-04T01:32:17.952Z,6.89
2023-01-04T01:37:19.158Z,6.86
2023-01-04T01:42:20.921Z,6.83
2023-01-04T01:47:22.146Z,6.86
2023-01-04T01:52:23.313Z,6.83
2023-01-04T01:57:24.515Z,6.85
2023-01-04T02:02:25.854Z,6.86
2023-01-04T02:07:27.188Z,6.88
2023-01-04T02:12:28.402Z,6.71
2023-01-04T02:17:29.630Z,6.92
2023-01-04T02:22:30.776Z,6.96
2023-01-04T02:27:31.997Z,6.98
2023-01-04T02:32:33.185Z,7.01
2023-01-04T02:37:34.392Z,7.03
2023-01-04T02:42:54.243Z,7.03
2023-01-04T02:48:13.889Z,7.04
2023-01-04T02:53:15.093Z,7.05
2023-01-04T02:58:16.288Z,7.07
2023-01-04T03:03:36.134Z,7.09
2023-01-04T03:08:37.449Z,7.10
2023-01-04T03:13:38.609Z,7.14
2023-01-04T03:18:39.773Z,7.15
2023-01-04T03:23:59.769Z,7.20
2023-01-04T03:29:19.539Z,7.23
2023-01-04T03:34:39.369Z,7.25
2023-01-04T03:39:59.300Z,7.28
2023-01-04T03:45:18.947Z,7.29
2023-01-04T03:50:20.102Z,7.35
2023-01-04T03:55:21.319Z,7.37
2023-01-04T04:00:23.717Z,7.40
2023-01-04T04:05:43.883Z,7.46
2023-01-04T04:10:45.050Z,7.54
2023-01-04T04:15:46.197Z,7.72
2023-01-04T04:20:47.376Z,7.85
2023-01-04T04:25:48.885Z,7.95
2023-01-04T04:30:50.104Z,7.99
2023-01-04T04:35:51.523Z,8.04
2023-01-04T04:41:11.414Z,8.11
2023-01-04T04:46:12.879Z,8.09
2023-01-04T04:51:14.216Z,8.12
2023-01-04T04:56:15.423Z,8.13
2023-01-04T05:01:16.706Z,8.13
2023-01-04T05:06:17.991Z,8.19
2023-01-04T05:11:39.158Z,8.27
2023-01-04T05:16:40.396Z,8.29
2023-01-04T05:21:41.596Z,8.31
2023-01-04T05:26:42.788Z,8.38
2023-01-04T05:31:44.103Z,8.48
2023-01-04T05:36:45.273Z,8.55
2023-01-04T05:42:05.185Z,8.60
2023-01-04T05:47:12.960Z,8.64
2023-01-04T05:52:15.937Z,8.62
2023-01-04T05:57:17.171Z,8.66
2023-01-04T06:02:18.473Z,8.65
2023-01-04T06:07:19.831Z,8.80
2023-01-04T06:12:21.006Z,8.82
2023-01-04T06:17:22.173Z,8.89
2023-01-04T06:22:23.430Z,8.95
2023-01-04T06:27:24.630Z,9.00
2023-01-04T06:32:25.769Z,9.03
2023-01-04T06:37:26.983Z,9.04
2023-01-04T06:42:46.682Z,9.08
2023-01-04T06:47:48.127Z,9.06
2023-01-04T06:52:49.454Z,9.11
2023-01-04T06:57:52.966Z,9.22
2023-01-04T07:03:14.744Z,9.21
2023-01-04T07:08:16.831Z,9.30
2023-01-04T07:13:18.086Z,9.31
2023-01-04T07:18:19.299Z,9.39
2023-01-04T07:23:20.467Z,9.39
2023-01-04T07:28:40.296Z,9.40
2023-01-04T07:33:41.475Z,9.47
2023-01-04T07:38:43.523Z,9.52
2023-01-04T07:43:44.725Z,9.55
2023-01-04T07:48:45.941Z,9.55
2023-01-04T07:53:47.151Z,9.59
2023-01-04T07:58:48.405Z,9.56
2023-01-04T08:03:49.551Z,9.56
2023-01-04T08:08:50.903Z,9.59
2023-01-04T08:13:52.105Z,9.69
2023-01-04T08:18:53.388Z,9.67
2023-01-04T08:23:54.577Z,9.76
2023-01-04T08:28:56.491Z,9.82
2023-01-04T08:33:57.691Z,9.83
2023-01-04T08:39:01.011Z,9.83
2023-01-04T08:44:02.719Z,9.83
2023-01-04T08:49:03.913Z,9.84
2023-01-04T08:54:05.068Z,9.85
2023-01-04T08:59:06.276Z,9.86
2023-01-04T09:04:07.593Z,9.84
2023-01-04T09:09:08.859Z,9.84
2023-01-04T09:14:10.435Z,9.87
2023-01-04T09:19:15.142Z,9.91
2023-01-04T09:24:19.378Z,10.00
2023-01-04T09:29:20.621Z,10.07
2023-01-04T09:34:21.811Z,10.10
2023-01-04T09:39:24.506Z,10.12
2023-01-04T09:44:39.704Z,10.16
2023-01-04T09:49:47.974Z,10.25
2023-01-04T09:54:49.163Z,10.31
2023-01-04T09:59:50.346Z,10.34
2023-01-04T10:04:51.589Z,10.39
2023-01-04T10:09:52.790Z,10.44
2023-01-04T10:14:53.980Z,10.47
2023-01-04T10:25:16.583Z,10.60
2023-01-04T10:30:17.834Z,10.70
2023-01-04T10:35:19.523Z,10.74
2023-01-04T10:40:20.729Z,10.71
2023-01-04T10:45:21.958Z,10.60
2023-01-04T10:50:23.324Z,10.52
2023-01-04T10:55:24.537Z,10.44
2023-01-04T11:00:25.702Z,10.41
2023-01-04T11:05:26.919Z,10.37
2023-01-04T11:10:28.070Z,10.34
2023-01-04T11:15:29.245Z,10.31
2023-01-04T11:20:34.517Z,10.25
2023-01-04T11:25:39.186Z,10.24
2023-01-04T11:30:41.220Z,10.22
2023-01-04T11:35:43.062Z,10.16
2023-01-04T11:40:44.498Z,10.13
2023-01-04T11:45:45.676Z,10.12
2023-01-04T11:50:46.925Z,10.15
2023-01-04T11:55:48.058Z,10.17
2023-01-04T12:00:49.264Z,10.23
2023-01-04T12:05:50.439Z,10.29
2023-01-04T12:10:51.585Z,10.43
2023-01-04T12:15:52.788Z,10.44
2023-01-04T12:20:54.008Z,10.52
2023-01-04T12:25:55.188Z,10.53
2023-01-04T12:30:56.349Z,10.64
2023-01-04T12:35:57.555Z,10.69
2023-01-04T12:40:58.718Z,10.77
2023-01-04T12:46:19.928Z,10.87
2023-01-04T12:51:37.412Z,11.00
2023-01-04T12:56:40.797Z,11.05
2023-01-04T13:01:42.184Z,11.17
2023-01-04T13:06:43.584Z,11.49
2023-01-04T13:11:44.787Z,11.76
2023-01-04T13:16:45.996Z,11.83
2023-01-04T13:21:47.244Z,11.92
2023-01-04T13:26:48.472Z,11.94
2023-01-04T13:31:49.847Z,12.00
2023-01-04T13:36:51.137Z,11.97
2023-01-04T13:41:53.755Z,12.00
2023-01-04T13:46:54.938Z,12.03
2023-01-04T13:52:11.389Z,12.03
2023-01-04T13:57:20.514Z,12.08
2023-01-04T14:02:22.090Z,12.12
2023-01-04T14:07:23.401Z,12.10
2023-01-04T14:12:24.678Z,12.19
2023-01-04T14:17:25.893Z,12.22
2023-01-04T14:22:27.083Z,12.26
2023-01-04T14:27:28.299Z,12.36
2023-01-04T14:32:29.493Z,12.44
2023-01-04T14:37:30.733Z,12.50
2023-01-04T14:42:31.863Z,12.55
2023-01-04T14:47:33.052Z,12.55
2023-01-04T14:52:34.218Z,12.60
2023-01-04T14:57:38.099Z,12.59
2023-01-04T15:02:39.520Z,12.62
2023-01-04T15:07:41.019Z,12.63
2023-01-04T15:12:42.164Z,12.67
2023-01-04T15:17:43.374Z,12.68
2023-01-04T15:22:44.519Z,12.63
2023-01-04T15:27:45.750Z,12.56
2023-01-04T15:32:46.968Z,12.56
2023-01-04T15:37:48.735Z,12.47
2023-01-04T15:42:59.086Z,12.41
2023-01-04T15:48:03.448Z,12.37
2023-01-04T15:53:04.660Z,12.31
2023-01-04T15:58:05.865Z,12.21
2023-01-04T16:03:07.175Z,12.13
2023-01-04T16:08:08.544Z,11.87
2023-01-04T16:13:09.736Z,11.63
2023-01-04T16:18:10.956Z,11.51
2023-01-04T16:23:12.156Z,11.44
2023-01-04T16:28:13.367Z,11.41
2023-01-04T16:33:14.542Z,11.38
2023-01-04T16:38:15.688Z,11.35
2023-01-04T16:43:17.247Z,11.42
2023-01-04T16:48:18.849Z,11.43
2023-01-04T16:53:20.072Z,11.45
2023-01-04T16:58:21.290Z,11.52
2023-01-04T17:03:22.510Z,11.49
2023-01-04T17:08:26.860Z,11.48
2023-01-04T17:13:28.380Z,11.42
2023-01-04T17:18:29.515Z,11.39
2023-01-04T17:23:30.821Z,11.38
2023-01-04T17:28:31.980Z,11.39
2023-01-04T17:33:33.176Z,11.48
2023-01-04T17:38:34.334Z,11.52
2023-01-04T17:43:35.590Z,11.53
2023-01-04T17:48:36.977Z,11.55
2023-01-04T17:53:38.115Z,11.58
2023-01-04T17:58:39.301Z,11.59
2023-01-04T18:03:42.942Z,11.60
2023-01-04T18:08:45.793Z,11.57
2023-01-04T18:13:47.023Z,11.55
2023-01-04T18:18:48.290Z,11.57
2023-01-04T18:24:16.401Z,11.61
2023-01-04T18:29:11.085Z,11.73
2023-01-04T18:34:12.313Z,11.71
2023-01-04T18:39:13.549Z,11.76
2023-01-04T18:49:36.259Z,11.68
2023-01-04T18:54:37.397Z,11.75
2023-01-04T18:59:38.638Z,11.76
2023-01-04T19:04:39.804Z,11.80
2023-01-04T19:09:42.435Z,11.82
2023-01-04T19:14:43.780Z,11.83
2023-01-04T19:19:45.889Z,11.77
2023-01-04T19:24:47.119Z,11.81
2023-01-04T19:29:48.361Z,11.77
2023-01-04T19:34:49.548Z,11.81
2023-01-04T19:39:50.752Z,11.79
2023-01-04T19:44:51.915Z,11.85
2023-01-04T19:49:53.041Z,11.61
2023-01-04T19:54:54.277Z,11.87
2023-01-04T19:59:55.447Z,11.87
2023-01-04T20:04:56.710Z,11.87
2023-01-04T20:09:57.899Z,11.94
2023-01-04T20:14:59.089Z,11.97
2023-01-04T20:20:00.333Z,11.92
2023-01-04T20:25:01.496Z,11.91
2023-01-04T20:30:02.711Z,11.93
2023-01-04T20:35:03.964Z,11.94
2023-01-04T20:40:05.192Z,12.01
2023-01-04T20:45:06.369Z,12.00
2023-01-04T20:50:09.357Z,11.92
2023-01-04T20:55:17.086Z,11.83
2023-01-04T21:00:18.693Z,11.76
2023-01-04T21:05:19.887Z,11.75
2023-01-04T21:10:21.103Z,11.69
2023-01-04T21:15:22.404Z,11.71
2023-01-04T21:20:24.569Z,11.64
2023-01-04T21:25:25.863Z,11.62
2023-01-04T21:30:27.064Z,11.61
2023-01-04T21:35:28.288Z,11.64
2023-01-04T21:40:29.536Z,11.61
2023-01-04T21:45:30.707Z,11.60
2023-01-04T21:50:32.381Z,11.58
2023-01-04T21:55:35.149Z,11.58
2023-01-04T22:00:36.514Z,11.58
2023-01-04T22:05:37.694Z,11.58
2023-01-04T22:10:39.025Z,11.56
2023-01-04T22:15:40.370Z,11.62
2023-01-04T22:20:41.633Z,11.66
2023-01-04T22:25:42.845Z,11.68
2023-01-04T22:30:44.022Z,11.66
2023-01-04T22:35:45.213Z,11.63
2023-01-04T22:40:46.398Z,11.59
2023-01-04T22:45:47.674Z,11.60
2023-01-04T22:50:49.061Z,11.57
2023-01-04T23:01:11.611Z,11.59
2023-01-04T23:06:12.916Z,11.52
2023-01-04T23:11:14.061Z,11.48
2023-01-04T23:16:15.301Z,11.42
2023-01-04T23:21:16.525Z,11.34
2023-01-04T23:26:17.669Z,11.40
2023-01-04T23:31:19.007Z,11.36
2023-01-04T23:36:20.259Z,11.29
2023-01-04T23:41:21.390Z,11.26
2023-01-04T23:46:22.824Z,11.26
2023-01-04T23:51:24.070Z,11.26
2023-01-04T23:56:25.286Z,11.25
